sensor_id;sensor_type;location;lat;lon;timestamp;P1;durP1;ratioP1;P2;durP2;ratioP2
52354;SDS011;38286;51.156;17.038;2022-09-09T00:04:28;15.73;;;6.53;;
52354;SDS011;38286;51.156;17.038;2022-09-09T00:07:00;7.70;;;6.00;;
52354;SDS011;38286;51.156;17.038;2022-09-09T00:09:30;9.40;;;6.22;;
52354;SDS011;38286;51.156;17.038;2022-09-09T00:12:08;9.30;;;5.72;;
52354;SDS011;38286;51.156;17.038;2022-09-09T00:14:38;9.30;;;5.60;;
52354;SDS011;38286;51.156;17.038;2022-09-09T00:17:17;11.50;;;6.43;;
52354;SDS011;38286;51.156;17.038;2022-09-09T00:20:03;11.48;;;6.97;;
52354;SDS011;38286;51.156;17.038;2022-09-09T00:22:38;11.20;;;6.97;;
52354;SDS011;38286;51.156;17.038;2022-09-09T00:27:45;9.50;;;6.43;;
52354;SDS011;38286;51.156;17.038;2022-09-09T00:30:14;9.70;;;6.45;;
52354;SDS011;38286;51.156;17.038;2022-09-09T00:32:47;11.18;;;7.35;;
52354;SDS011;38286;51.156;17.038;2022-09-09T00:37:51;10.70;;;6.68;;
52354;SDS011;38286;51.156;17.038;2022-09-09T00:40:32;10.75;;;6.63;;
52354;SDS011;38286;51.156;17.038;2022-09-09T00:51:21;9.32;;;6.32;;
52354;SDS011;38286;51.156;17.038;2022-09-09T00:59:12;10.98;;;7.13;;
52354;SDS011;38286;51.156;17.038;2022-09-09T01:01:47;8.93;;;7.05;;
52354;SDS011;38286;51.156;17.038;2022-09-09T01:04:16;10.00;;;6.75;;
52354;SDS011;38286;51.156;17.038;2022-09-09T01:06:45;10.95;;;6.97;;
52354;SDS011;38286;51.156;17.038;2022-09-09T01:09:26;11.90;;;7.00;;
52354;SDS011;38286;51.156;17.038;2022-09-09T01:19:52;11.75;;;7.60;;
52354;SDS011;38286;51.156;17.038;2022-09-09T01:23:26;11.13;;;7.38;;
52354;SDS011;38286;51.156;17.038;2022-09-09T01:28:36;10.38;;;7.45;;
52354;SDS011;38286;51.156;17.038;2022-09-09T01:31:06;10.65;;;8.43;;
52354;SDS011;38286;51.156;17.038;2022-09-09T01:33:31;10.00;;;7.82;;
52354;SDS011;38286;51.156;17.038;2022-09-09T01:36:02;8.95;;;7.38;;
52354;SDS011;38286;51.156;17.038;2022-09-09T01:38:31;9.02;;;7.30;;
52354;SDS011;38286;51.156;17.038;2022-09-09T01:40:57;10.18;;;7.80;;
52354;SDS011;38286;51.156;17.038;2022-09-09T01:43:23;9.63;;;8.00;;
52354;SDS011;38286;51.156;17.038;2022-09-09T01:45:54;9.65;;;7.63;;
52354;SDS011;38286;51.156;17.038;2022-09-09T01:48:22;8.77;;;7.15;;
52354;SDS011;38286;51.156;17.038;2022-09-09T01:50:49;10.10;;;7.03;;
52354;SDS011;38286;51.156;17.038;2022-09-09T01:53:15;9.55;;;6.28;;
52354;SDS011;38286;51.156;17.038;2022-09-09T01:55:45;9.10;;;6.60;;
52354;SDS011;38286;51.156;17.038;2022-09-09T01:59:02;9.95;;;7.18;;
52354;SDS011;38286;51.156;17.038;2022-09-09T02:04:43;11.95;;;7.72;;
52354;SDS011;38286;51.156;17.038;2022-09-09T02:07:24;11.25;;;6.72;;
52354;SDS011;38286;51.156;17.038;2022-09-09T02:10:07;8.32;;;6.85;;
52354;SDS011;38286;51.156;17.038;2022-09-09T02:12:40;8.35;;;6.43;;
52354;SDS011;38286;51.156;17.038;2022-09-09T02:18:14;9.85;;;6.13;;
52354;SDS011;38286;51.156;17.038;2022-09-09T02:20:43;9.90;;;6.57;;
52354;SDS011;38286;51.156;17.038;2022-09-09T02:23:10;9.65;;;7.35;;
52354;SDS011;38286;51.156;17.038;2022-09-09T02:25:36;8.27;;;6.28;;
52354;SDS011;38286;51.156;17.038;2022-09-09T02:28:03;11.88;;;6.95;;
52354;SDS011;38286;51.156;17.038;2022-09-09T02:30:32;8.80;;;6.50;;
52354;SDS011;38286;51.156;17.038;2022-09-09T02:32:59;9.20;;;7.05;;
52354;SDS011;38286;51.156;17.038;2022-09-09T02:35:27;9.60;;;6.95;;
52354;SDS011;38286;51.156;17.038;2022-09-09T02:37:56;7.20;;;6.20;;
52354;SDS011;38286;51.156;17.038;2022-09-09T02:40:25;8.88;;;6.72;;
52354;SDS011;38286;51.156;17.038;2022-09-09T02:42:51;6.47;;;5.47;;
52354;SDS011;38286;51.156;17.038;2022-09-09T02:45:18;7.88;;;6.20;;
52354;SDS011;38286;51.156;17.038;2022-09-09T02:47:50;6.70;;;5.78;;
52354;SDS011;38286;51.156;17.038;2022-09-09T02:53:15;9.63;;;7.10;;
52354;SDS011;38286;51.156;17.038;2022-09-09T02:56:14;8.10;;;6.65;;
52354;SDS011;38286;51.156;17.038;2022-09-09T02:58:41;9.07;;;7.35;;
52354;SDS011;38286;51.156;17.038;2022-09-09T03:01:07;6.15;;;5.50;;
52354;SDS011;38286;51.156;17.038;2022-09-09T03:03:33;7.65;;;5.90;;
52354;SDS011;38286;51.156;17.038;2022-09-09T03:05:59;6.72;;;5.32;;
52354;SDS011;38286;51.156;17.038;2022-09-09T03:08:25;7.68;;;5.28;;
52354;SDS011;38286;51.156;17.038;2022-09-09T03:10:53;8.13;;;5.43;;
52354;SDS011;38286;51.156;17.038;2022-09-09T03:13:19;8.48;;;6.13;;
52354;SDS011;38286;51.156;17.038;2022-09-09T03:15:45;6.25;;;5.07;;
52354;SDS011;38286;51.156;17.038;2022-09-09T03:18:11;8.20;;;5.55;;
52354;SDS011;38286;51.156;17.038;2022-09-09T03:20:36;7.40;;;5.80;;
52354;SDS011;38286;51.156;17.038;2022-09-09T03:23:02;16.75;;;8.90;;
52354;SDS011;38286;51.156;17.038;2022-09-09T03:25:27;14.45;;;8.52;;
52354;SDS011;38286;51.156;17.038;2022-09-09T03:27:53;11.25;;;7.85;;
52354;SDS011;38286;51.156;17.038;2022-09-09T03:30:21;10.48;;;7.82;;
52354;SDS011;38286;51.156;17.038;2022-09-09T03:32:47;10.73;;;8.38;;
52354;SDS011;38286;51.156;17.038;2022-09-09T03:35:13;7.32;;;5.95;;
52354;SDS011;38286;51.156;17.038;2022-09-09T03:37:39;7.75;;;6.07;;
52354;SDS011;38286;51.156;17.038;2022-09-09T03:40:05;11.02;;;5.45;;
52354;SDS011;38286;51.156;17.038;2022-09-09T03:42:31;7.65;;;6.00;;
52354;SDS011;38286;51.156;17.038;2022-09-09T03:44:57;8.35;;;6.03;;
52354;SDS011;38286;51.156;17.038;2022-09-09T03:47:24;11.35;;;6.47;;
52354;SDS011;38286;51.156;17.038;2022-09-09T03:49:49;8.23;;;6.07;;
52354;SDS011;38286;51.156;17.038;2022-09-09T03:52:15;11.48;;;6.32;;
52354;SDS011;38286;51.156;17.038;2022-09-09T03:54:41;9.05;;;6.07;;
52354;SDS011;38286;51.156;17.038;2022-09-09T03:57:08;8.60;;;6.07;;
52354;SDS011;38286;51.156;17.038;2022-09-09T03:59:35;9.32;;;6.57;;
52354;SDS011;38286;51.156;17.038;2022-09-09T04:02:00;7.63;;;6.07;;
52354;SDS011;38286;51.156;17.038;2022-09-09T04:04:26;10.98;;;5.88;;
52354;SDS011;38286;51.156;17.038;2022-09-09T04:06:52;8.00;;;6.28;;
52354;SDS011;38286;51.156;17.038;2022-09-09T04:09:18;7.90;;;6.50;;
52354;SDS011;38286;51.156;17.038;2022-09-09T04:11:44;7.95;;;5.35;;
52354;SDS011;38286;51.156;17.038;2022-09-09T04:14:10;7.18;;;5.28;;
52354;SDS011;38286;51.156;17.038;2022-09-09T04:16:35;6.72;;;5.03;;
52354;SDS011;38286;51.156;17.038;2022-09-09T04:19:03;6.95;;;5.90;;
52354;SDS011;38286;51.156;17.038;2022-09-09T04:21:29;11.20;;;7.97;;
52354;SDS011;38286;51.156;17.038;2022-09-09T04:23:55;14.10;;;6.25;;
52354;SDS011;38286;51.156;17.038;2022-09-09T04:26:21;15.23;;;8.55;;
52354;SDS011;38286;51.156;17.038;2022-09-09T04:28:47;12.77;;;6.93;;
52354;SDS011;38286;51.156;17.038;2022-09-09T04:31:17;9.05;;;6.00;;
52354;SDS011;38286;51.156;17.038;2022-09-09T04:37:25;7.57;;;5.75;;
52354;SDS011;38286;51.156;17.038;2022-09-09T04:39:51;8.57;;;5.85;;
52354;SDS011;38286;51.156;17.038;2022-09-09T04:42:17;8.45;;;6.07;;
52354;SDS011;38286;51.156;17.038;2022-09-09T04:44:44;8.02;;;5.95;;
52354;SDS011;38286;51.156;17.038;2022-09-09T04:47:10;8.93;;;6.93;;
52354;SDS011;38286;51.156;17.038;2022-09-09T04:49:36;13.75;;;8.18;;
52354;SDS011;38286;51.156;17.038;2022-09-09T04:52:02;10.00;;;6.50;;
52354;SDS011;38286;51.156;17.038;2022-09-09T04:54:28;11.85;;;8.10;;
52354;SDS011;38286;51.156;17.038;2022-09-09T04:56:54;9.82;;;7.30;;
52354;SDS011;38286;51.156;17.038;2022-09-09T04:59:20;10.48;;;7.50;;
52354;SDS011;38286;51.156;17.038;2022-09-09T05:01:47;12.68;;;7.65;;
52354;SDS011;38286;51.156;17.038;2022-09-09T05:04:13;12.57;;;7.38;;
52354;SDS011;38286;51.156;17.038;2022-09-09T05:06:41;8.52;;;7.05;;
52354;SDS011;38286;51.156;17.038;2022-09-09T05:09:07;12.05;;;7.63;;
52354;SDS011;38286;51.156;17.038;2022-09-09T05:11:33;9.88;;;7.43;;
52354;SDS011;38286;51.156;17.038;2022-09-09T05:14:03;8.75;;;7.38;;
52354;SDS011;38286;51.156;17.038;2022-09-09T05:16:29;10.68;;;7.85;;
52354;SDS011;38286;51.156;17.038;2022-09-09T05:18:55;14.57;;;8.35;;
52354;SDS011;38286;51.156;17.038;2022-09-09T05:21:22;18.73;;;8.15;;
52354;SDS011;38286;51.156;17.038;2022-09-09T05:23:49;11.52;;;7.57;;
52354;SDS011;38286;51.156;17.038;2022-09-09T05:26:16;11.90;;;8.13;;
52354;SDS011;38286;51.156;17.038;2022-09-09T05:28:43;12.68;;;8.20;;
52354;SDS011;38286;51.156;17.038;2022-09-09T05:31:10;11.48;;;9.13;;
52354;SDS011;38286;51.156;17.038;2022-09-09T05:33:37;12.65;;;8.38;;
52354;SDS011;38286;51.156;17.038;2022-09-09T05:36:12;13.20;;;8.77;;
52354;SDS011;38286;51.156;17.038;2022-09-09T05:38:48;11.00;;;8.15;;
52354;SDS011;38286;51.156;17.038;2022-09-09T05:41:15;16.00;;;9.45;;
52354;SDS011;38286;51.156;17.038;2022-09-09T05:43:42;15.95;;;9.82;;
52354;SDS011;38286;51.156;17.038;2022-09-09T05:46:17;15.68;;;10.00;;
52354;SDS011;38286;51.156;17.038;2022-09-09T05:48:44;15.05;;;9.23;;
52354;SDS011;38286;51.156;17.038;2022-09-09T05:51:17;13.60;;;9.80;;
52354;SDS011;38286;51.156;17.038;2022-09-09T05:53:45;16.67;;;10.13;;
52354;SDS011;38286;51.156;17.038;2022-09-09T05:56:15;15.02;;;10.20;;
52354;SDS011;38286;51.156;17.038;2022-09-09T05:58:43;14.82;;;9.73;;
52354;SDS011;38286;51.156;17.038;2022-09-09T06:01:13;15.30;;;9.68;;
52354;SDS011;38286;51.156;17.038;2022-09-09T06:03:41;11.80;;;9.32;;
52354;SDS011;38286;51.156;17.038;2022-09-09T06:06:08;14.88;;;9.32;;
52354;SDS011;38286;51.156;17.038;2022-09-09T06:08:37;16.05;;;9.55;;
52354;SDS011;38286;51.156;17.038;2022-09-09T06:11:07;13.18;;;10.13;;
52354;SDS011;38286;51.156;17.038;2022-09-09T06:13:34;14.05;;;9.93;;
52354;SDS011;38286;51.156;17.038;2022-09-09T06:16:02;12.65;;;10.02;;
52354;SDS011;38286;51.156;17.038;2022-09-09T06:18:28;15.18;;;9.68;;
52354;SDS011;38286;51.156;17.038;2022-09-09T06:20:59;16.15;;;10.50;;
52354;SDS011;38286;51.156;17.038;2022-09-09T06:23:32;14.07;;;9.70;;
52354;SDS011;38286;51.156;17.038;2022-09-09T06:26:07;12.90;;;9.63;;
52354;SDS011;38286;51.156;17.038;2022-09-09T06:28:35;16.38;;;10.32;;
52354;SDS011;38286;51.156;17.038;2022-09-09T06:31:03;15.57;;;10.68;;
52354;SDS011;38286;51.156;17.038;2022-09-09T06:33:34;9.60;;;7.18;;
52354;SDS011;38286;51.156;17.038;2022-09-09T06:36:01;8.23;;;6.43;;
52354;SDS011;38286;51.156;17.038;2022-09-09T06:38:29;7.47;;;5.47;;
52354;SDS011;38286;51.156;17.038;2022-09-09T06:40:55;6.88;;;5.95;;
52354;SDS011;38286;51.156;17.038;2022-09-09T06:43:25;8.55;;;5.60;;
52354;SDS011;38286;51.156;17.038;2022-09-09T06:45:58;5.75;;;5.15;;
52354;SDS011;38286;51.156;17.038;2022-09-09T06:48:25;8.70;;;4.72;;
52354;SDS011;38286;51.156;17.038;2022-09-09T06:50:59;6.80;;;4.40;;
52354;SDS011;38286;51.156;17.038;2022-09-09T06:53:26;4.68;;;3.90;;
52354;SDS011;38286;51.156;17.038;2022-09-09T06:55:52;5.30;;;3.80;;
52354;SDS011;38286;51.156;17.038;2022-09-09T06:58:18;4.90;;;3.50;;
52354;SDS011;38286;51.156;17.038;2022-09-09T07:00:43;4.28;;;3.10;;
52354;SDS011;38286;51.156;17.038;2022-09-09T07:03:09;5.22;;;2.88;;
52354;SDS011;38286;51.156;17.038;2022-09-09T07:05:35;3.72;;;3.28;;
52354;SDS011;38286;51.156;17.038;2022-09-09T07:08:01;4.57;;;2.80;;
52354;SDS011;38286;51.156;17.038;2022-09-09T07:10:27;4.00;;;2.72;;
52354;SDS011;38286;51.156;17.038;2022-09-09T07:12:53;4.55;;;2.47;;
52354;SDS011;38286;51.156;17.038;2022-09-09T07:15:18;3.35;;;2.45;;
52354;SDS011;38286;51.156;17.038;2022-09-09T07:17:44;4.00;;;2.42;;
52354;SDS011;38286;51.156;17.038;2022-09-09T07:20:11;3.50;;;2.63;;
52354;SDS011;38286;51.156;17.038;2022-09-09T07:22:37;4.28;;;2.70;;
52354;SDS011;38286;51.156;17.038;2022-09-09T07:25:03;4.80;;;2.38;;
52354;SDS011;38286;51.156;17.038;2022-09-09T07:27:29;3.65;;;2.10;;
52354;SDS011;38286;51.156;17.038;2022-09-09T07:29:55;5.13;;;2.08;;
52354;SDS011;38286;51.156;17.038;2022-09-09T07:32:21;2.67;;;2.22;;
52354;SDS011;38286;51.156;17.038;2022-09-09T07:34:47;3.25;;;2.00;;
52354;SDS011;38286;51.156;17.038;2022-09-09T07:37:12;2.92;;;2.13;;
52354;SDS011;38286;51.156;17.038;2022-09-09T07:39:39;3.78;;;1.92;;
52354;SDS011;38286;51.156;17.038;2022-09-09T07:42:05;3.50;;;2.08;;
52354;SDS011;38286;51.156;17.038;2022-09-09T07:44:30;4.47;;;2.47;;
52354;SDS011;38286;51.156;17.038;2022-09-09T07:47:00;3.35;;;2.08;;
52354;SDS011;38286;51.156;17.038;2022-09-09T07:49:26;3.55;;;1.70;;
52354;SDS011;38286;51.156;17.038;2022-09-09T07:51:52;3.33;;;1.35;;
52354;SDS011;38286;51.156;17.038;2022-09-09T07:54:18;1.73;;;1.42;;
52354;SDS011;38286;51.156;17.038;2022-09-09T07:56:45;5.90;;;1.83;;
52354;SDS011;38286;51.156;17.038;2022-09-09T07:59:12;5.28;;;1.65;;
52354;SDS011;38286;51.156;17.038;2022-09-09T08:01:42;2.30;;;1.65;;
52354;SDS011;38286;51.156;17.038;2022-09-09T08:04:14;1.70;;;1.30;;
52354;SDS011;38286;51.156;17.038;2022-09-09T08:07:03;2.10;;;1.42;;
52354;SDS011;38286;51.156;17.038;2022-09-09T08:09:28;4.72;;;1.60;;
52354;SDS011;38286;51.156;17.038;2022-09-09T08:11:54;1.83;;;1.30;;
52354;SDS011;38286;51.156;17.038;2022-09-09T08:14:25;3.78;;;1.30;;
52354;SDS011;38286;51.156;17.038;2022-09-09T08:16:50;2.92;;;1.35;;
52354;SDS011;38286;51.156;17.038;2022-09-09T08:19:16;3.45;;;1.50;;
52354;SDS011;38286;51.156;17.038;2022-09-09T08:21:42;2.10;;;1.33;;
52354;SDS011;38286;51.156;17.038;2022-09-09T08:24:10;5.20;;;2.00;;
52354;SDS011;38286;51.156;17.038;2022-09-09T08:26:40;4.68;;;1.75;;
52354;SDS011;38286;51.156;17.038;2022-09-09T08:29:08;1.75;;;1.60;;
52354;SDS011;38286;51.156;17.038;2022-09-09T08:31:36;3.03;;;1.55;;
52354;SDS011;38286;51.156;17.038;2022-09-09T08:34:04;3.53;;;1.30;;
52354;SDS011;38286;51.156;17.038;2022-09-09T08:36:32;1.27;;;1.02;;
52354;SDS011;38286;51.156;17.038;2022-09-09T08:38:59;2.10;;;1.10;;
52354;SDS011;38286;51.156;17.038;2022-09-09T08:52:32;3.42;;;0.98;;
52354;SDS011;38286;51.156;17.038;2022-09-09T08:55:20;3.50;;;1.20;;
52354;SDS011;38286;51.156;17.038;2022-09-09T08:57:54;2.13;;;1.00;;
52354;SDS011;38286;51.156;17.038;2022-09-09T09:00:21;7.63;;;1.30;;
52354;SDS011;38286;51.156;17.038;2022-09-09T09:03:06;3.58;;;1.13;;
52354;SDS011;38286;51.156;17.038;2022-09-09T09:05:45;2.53;;;1.13;;
52354;SDS011;38286;51.156;17.038;2022-09-09T09:11:03;1.20;;;0.90;;
52354;SDS011;38286;51.156;17.038;2022-09-09T09:16:17;4.13;;;1.38;;
52354;SDS011;38286;51.156;17.038;2022-09-09T09:18:47;4.88;;;1.25;;
52354;SDS011;38286;51.156;17.038;2022-09-09T09:21:19;4.25;;;1.38;;
52354;SDS011;38286;51.156;17.038;2022-09-09T09:26:30;2.45;;;0.95;;
52354;SDS011;38286;51.156;17.038;2022-09-09T09:28:58;4.90;;;1.30;;
52354;SDS011;38286;51.156;17.038;2022-09-09T09:31:25;2.33;;;1.10;;
52354;SDS011;38286;51.156;17.038;2022-09-09T09:36:18;2.55;;;1.27;;
52354;SDS011;38286;51.156;17.038;2022-09-09T09:39:04;3.25;;;1.10;;
52354;SDS011;38286;51.156;17.038;2022-09-09T09:41:34;2.92;;;1.20;;
52354;SDS011;38286;51.156;17.038;2022-09-09T09:44:04;2.13;;;1.00;;
52354;SDS011;38286;51.156;17.038;2022-09-09T09:46:31;6.85;;;1.50;;
52354;SDS011;38286;51.156;17.038;2022-09-09T09:49:01;4.88;;;1.27;;
52354;SDS011;38286;51.156;17.038;2022-09-09T09:51:29;3.78;;;1.50;;
52354;SDS011;38286;51.156;17.038;2022-09-09T09:54:07;4.07;;;1.50;;
52354;SDS011;38286;51.156;17.038;2022-09-09T09:56:44;7.75;;;1.92;;
52354;SDS011;38286;51.156;17.038;2022-09-09T09:59:21;6.15;;;1.58;;
52354;SDS011;38286;51.156;17.038;2022-09-09T10:01:46;2.50;;;1.60;;
52354;SDS011;38286;51.156;17.038;2022-09-09T10:04:16;2.85;;;1.05;;
52354;SDS011;38286;51.156;17.038;2022-09-09T10:06:45;1.83;;;1.20;;
52354;SDS011;38286;51.156;17.038;2022-09-09T10:09:21;5.72;;;1.30;;
52354;SDS011;38286;51.156;17.038;2022-09-09T10:20:19;2.78;;;0.90;;
52354;SDS011;38286;51.156;17.038;2022-09-09T10:23:02;1.02;;;0.90;;
52354;SDS011;38286;51.156;17.038;2022-09-09T10:25:43;4.43;;;1.08;;
52354;SDS011;38286;51.156;17.038;2022-09-09T10:28:30;1.50;;;0.80;;
52354;SDS011;38286;51.156;17.038;2022-09-09T10:36:56;3.15;;;1.10;;
52354;SDS011;38286;51.156;17.038;2022-09-09T10:42:07;2.10;;;0.70;;
52354;SDS011;38286;51.156;17.038;2022-09-09T10:47:36;9.48;;;1.15;;
52354;SDS011;38286;51.156;17.038;2022-09-09T11:00:18;1.75;;;0.90;;
52354;SDS011;38286;51.156;17.038;2022-09-09T11:03:21;2.00;;;1.00;;
52354;SDS011;38286;51.156;17.038;2022-09-09T11:05:51;3.83;;;0.90;;
52354;SDS011;38286;51.156;17.038;2022-09-09T11:08:21;2.45;;;1.10;;
52354;SDS011;38286;51.156;17.038;2022-09-09T11:13:39;3.42;;;1.27;;
52354;SDS011;38286;51.156;17.038;2022-09-09T11:19:44;5.32;;;1.58;;
52354;SDS011;38286;51.156;17.038;2022-09-09T11:25:01;2.88;;;1.15;;
52354;SDS011;38286;51.156;17.038;2022-09-09T11:28:08;6.90;;;1.65;;
52354;SDS011;38286;51.156;17.038;2022-09-09T11:36:50;1.52;;;1.25;;
52354;SDS011;38286;51.156;17.038;2022-09-09T11:44:39;3.30;;;1.10;;
52354;SDS011;38286;51.156;17.038;2022-09-09T11:47:15;3.28;;;1.10;;
52354;SDS011;38286;51.156;17.038;2022-09-09T11:50:26;2.60;;;1.10;;
52354;SDS011;38286;51.156;17.038;2022-09-09T11:55:39;1.85;;;0.90;;
52354;SDS011;38286;51.156;17.038;2022-09-09T12:00:40;3.38;;;1.02;;
52354;SDS011;38286;51.156;17.038;2022-09-09T12:06:08;3.25;;;1.15;;
52354;SDS011;38286;51.156;17.038;2022-09-09T12:08:47;3.95;;;1.38;;
52354;SDS011;38286;51.156;17.038;2022-09-09T12:11:29;1.80;;;1.10;;
52354;SDS011;38286;51.156;17.038;2022-09-09T12:13:57;3.70;;;1.00;;
52354;SDS011;38286;51.156;17.038;2022-09-09T12:16:34;2.25;;;1.00;;
52354;SDS011;38286;51.156;17.038;2022-09-09T12:19:14;5.65;;;1.00;;
52354;SDS011;38286;51.156;17.038;2022-09-09T12:21:46;3.72;;;1.00;;
52354;SDS011;38286;51.156;17.038;2022-09-09T12:24:19;2.45;;;0.90;;
52354;SDS011;38286;51.156;17.038;2022-09-09T12:32:28;11.80;;;1.40;;
52354;SDS011;38286;51.156;17.038;2022-09-09T12:37:56;3.58;;;1.30;;
52354;SDS011;38286;51.156;17.038;2022-09-09T12:40:28;3.45;;;0.90;;
52354;SDS011;38286;51.156;17.038;2022-09-09T12:43:00;1.25;;;1.00;;
52354;SDS011;38286;51.156;17.038;2022-09-09T12:45:31;1.42;;;0.90;;
52354;SDS011;38286;51.156;17.038;2022-09-09T12:47:58;7.03;;;1.25;;
52354;SDS011;38286;51.156;17.038;2022-09-09T12:50:27;4.40;;;1.40;;
52354;SDS011;38286;51.156;17.038;2022-09-09T12:52:56;4.10;;;1.27;;
52354;SDS011;38286;51.156;17.038;2022-09-09T12:55:48;1.48;;;0.90;;
52354;SDS011;38286;51.156;17.038;2022-09-09T12:58:20;3.60;;;1.17;;
52354;SDS011;38286;51.156;17.038;2022-09-09T13:00:53;1.08;;;0.90;;
52354;SDS011;38286;51.156;17.038;2022-09-09T13:03:23;2.42;;;1.10;;
52354;SDS011;38286;51.156;17.038;2022-09-09T13:05:50;2.78;;;0.90;;
52354;SDS011;38286;51.156;17.038;2022-09-09T13:08:16;0.98;;;0.90;;
52354;SDS011;38286;51.156;17.038;2022-09-09T13:11:05;3.58;;;1.20;;
52354;SDS011;38286;51.156;17.038;2022-09-09T13:13:40;2.50;;;1.23;;
52354;SDS011;38286;51.156;17.038;2022-09-09T13:16:18;4.40;;;1.58;;
52354;SDS011;38286;51.156;17.038;2022-09-09T13:18:45;1.73;;;0.90;;
52354;SDS011;38286;51.156;17.038;2022-09-09T13:21:12;3.63;;;1.10;;
52354;SDS011;38286;51.156;17.038;2022-09-09T13:23:38;4.63;;;1.63;;
52354;SDS011;38286;51.156;17.038;2022-09-09T13:26:20;1.23;;;1.00;;
52354;SDS011;38286;51.156;17.038;2022-09-09T13:28:50;2.17;;;0.98;;
52354;SDS011;38286;51.156;17.038;2022-09-09T13:31:29;3.00;;;1.00;;
52354;SDS011;38286;51.156;17.038;2022-09-09T13:33:56;3.20;;;0.90;;
52354;SDS011;38286;51.156;17.038;2022-09-09T13:36:32;5.00;;;0.95;;
52354;SDS011;38286;51.156;17.038;2022-09-09T13:39:00;4.10;;;1.10;;
52354;SDS011;38286;51.156;17.038;2022-09-09T13:41:34;4.20;;;1.23;;
52354;SDS011;38286;51.156;17.038;2022-09-09T13:44:02;2.30;;;1.00;;
52354;SDS011;38286;51.156;17.038;2022-09-09T13:46:35;1.13;;;1.00;;
52354;SDS011;38286;51.156;17.038;2022-09-09T13:51:38;5.53;;;1.52;;
52354;SDS011;38286;51.156;17.038;2022-09-09T13:54:11;2.75;;;1.20;;
52354;SDS011;38286;51.156;17.038;2022-09-09T13:56:37;2.35;;;1.13;;
52354;SDS011;38286;51.156;17.038;2022-09-09T13:59:05;2.20;;;0.75;;
52354;SDS011;38286;51.156;17.038;2022-09-09T14:01:31;4.03;;;1.30;;
52354;SDS011;38286;51.156;17.038;2022-09-09T14:03:58;2.60;;;1.00;;
52354;SDS011;38286;51.156;17.038;2022-09-09T14:06:24;3.75;;;1.10;;
52354;SDS011;38286;51.156;17.038;2022-09-09T14:08:50;1.77;;;1.00;;
52354;SDS011;38286;51.156;17.038;2022-09-09T14:11:16;2.60;;;1.17;;
52354;SDS011;38286;51.156;17.038;2022-09-09T14:13:42;2.47;;;1.10;;
52354;SDS011;38286;51.156;17.038;2022-09-09T14:16:07;1.65;;;0.98;;
52354;SDS011;38286;51.156;17.038;2022-09-09T14:18:33;7.85;;;1.15;;
52354;SDS011;38286;51.156;17.038;2022-09-09T14:20:59;3.10;;;0.98;;
52354;SDS011;38286;51.156;17.038;2022-09-09T14:23:25;1.17;;;0.90;;
52354;SDS011;38286;51.156;17.038;2022-09-09T14:25:50;6.03;;;1.42;;
52354;SDS011;38286;51.156;17.038;2022-09-09T14:28:16;3.55;;;1.50;;
52354;SDS011;38286;51.156;17.038;2022-09-09T14:30:43;2.17;;;1.10;;
52354;SDS011;38286;51.156;17.038;2022-09-09T14:33:13;3.05;;;1.63;;
52354;SDS011;38286;51.156;17.038;2022-09-09T14:35:40;4.32;;;1.50;;
52354;SDS011;38286;51.156;17.038;2022-09-09T14:38:07;2.92;;;1.10;;
52354;SDS011;38286;51.156;17.038;2022-09-09T14:40:36;1.13;;;1.00;;
52354;SDS011;38286;51.156;17.038;2022-09-09T14:43:03;3.05;;;1.08;;
52354;SDS011;38286;51.156;17.038;2022-09-09T14:45:30;2.30;;;1.20;;
52354;SDS011;38286;51.156;17.038;2022-09-09T14:47:56;2.63;;;1.13;;
52354;SDS011;38286;51.156;17.038;2022-09-09T14:50:22;3.88;;;1.67;;
52354;SDS011;38286;51.156;17.038;2022-09-09T14:52:48;2.63;;;1.42;;
52354;SDS011;38286;51.156;17.038;2022-09-09T14:55:14;4.75;;;2.60;;
52354;SDS011;38286;51.156;17.038;2022-09-09T14:57:40;5.90;;;3.17;;
52354;SDS011;38286;51.156;17.038;2022-09-09T15:00:07;1.23;;;0.90;;
52354;SDS011;38286;51.156;17.038;2022-09-09T15:02:33;4.05;;;1.38;;
52354;SDS011;38286;51.156;17.038;2022-09-09T15:04:59;5.50;;;2.92;;
52354;SDS011;38286;51.156;17.038;2022-09-09T15:07:26;2.67;;;1.23;;
52354;SDS011;38286;51.156;17.038;2022-09-09T15:09:53;4.80;;;2.00;;
52354;SDS011;38286;51.156;17.038;2022-09-09T15:12:19;1.98;;;1.33;;
52354;SDS011;38286;51.156;17.038;2022-09-09T15:14:45;10.15;;;5.70;;
52354;SDS011;38286;51.156;17.038;2022-09-09T15:17:11;3.78;;;1.73;;
52354;SDS011;38286;51.156;17.038;2022-09-09T15:19:37;5.50;;;1.30;;
52354;SDS011;38286;51.156;17.038;2022-09-09T15:22:03;3.40;;;1.10;;
52354;SDS011;38286;51.156;17.038;2022-09-09T15:24:33;3.53;;;1.20;;
52354;SDS011;38286;51.156;17.038;2022-09-09T15:27:00;4.93;;;1.52;;
52354;SDS011;38286;51.156;17.038;2022-09-09T15:29:26;3.08;;;1.20;;
52354;SDS011;38286;51.156;17.038;2022-09-09T15:31:53;3.40;;;1.48;;
52354;SDS011;38286;51.156;17.038;2022-09-09T15:34:19;1.45;;;1.20;;
52354;SDS011;38286;51.156;17.038;2022-09-09T15:36:45;1.42;;;1.15;;
52354;SDS011;38286;51.156;17.038;2022-09-09T15:39:14;6.32;;;2.20;;
52354;SDS011;38286;51.156;17.038;2022-09-09T15:41:42;4.63;;;2.28;;
52354;SDS011;38286;51.156;17.038;2022-09-09T15:44:09;3.20;;;1.75;;
52354;SDS011;38286;51.156;17.038;2022-09-09T15:46:38;3.38;;;1.50;;
52354;SDS011;38286;51.156;17.038;2022-09-09T15:49:06;2.22;;;1.48;;
52354;SDS011;38286;51.156;17.038;2022-09-09T15:51:37;1.45;;;1.30;;
52354;SDS011;38286;51.156;17.038;2022-09-09T15:54:08;3.63;;;1.30;;
52354;SDS011;38286;51.156;17.038;2022-09-09T15:56:34;1.60;;;1.20;;
52354;SDS011;38286;51.156;17.038;2022-09-09T15:59:00;4.75;;;1.30;;
52354;SDS011;38286;51.156;17.038;2022-09-09T16:01:28;2.58;;;1.35;;
52354;SDS011;38286;51.156;17.038;2022-09-09T16:03:55;2.83;;;2.08;;
52354;SDS011;38286;51.156;17.038;2022-09-09T16:06:22;2.55;;;1.33;;
52354;SDS011;38286;51.156;17.038;2022-09-09T16:08:50;3.70;;;1.77;;
52354;SDS011;38286;51.156;17.038;2022-09-09T16:11:17;5.45;;;1.90;;
52354;SDS011;38286;51.156;17.038;2022-09-09T16:13:45;2.97;;;1.73;;
52354;SDS011;38286;51.156;17.038;2022-09-09T16:16:12;2.70;;;1.50;;
52354;SDS011;38286;51.156;17.038;2022-09-09T16:18:39;2.35;;;1.45;;
52354;SDS011;38286;51.156;17.038;2022-09-09T16:21:06;5.80;;;2.20;;
52354;SDS011;38286;51.156;17.038;2022-09-09T16:23:33;3.30;;;1.55;;
52354;SDS011;38286;51.156;17.038;2022-09-09T16:25:59;3.83;;;1.73;;
52354;SDS011;38286;51.156;17.038;2022-09-09T16:28:25;4.18;;;1.67;;
52354;SDS011;38286;51.156;17.038;2022-09-09T16:30:51;2.60;;;1.50;;
52354;SDS011;38286;51.156;17.038;2022-09-09T16:33:17;5.78;;;1.95;;
52354;SDS011;38286;51.156;17.038;2022-09-09T16:35:43;3.50;;;2.22;;
52354;SDS011;38286;51.156;17.038;2022-09-09T16:38:09;8.15;;;4.18;;
52354;SDS011;38286;51.156;17.038;2022-09-09T16:40:35;4.43;;;1.90;;
52354;SDS011;38286;51.156;17.038;2022-09-09T16:43:05;3.67;;;2.03;;
52354;SDS011;38286;51.156;17.038;2022-09-09T16:45:31;4.55;;;2.00;;
52354;SDS011;38286;51.156;17.038;2022-09-09T16:47:57;2.95;;;1.65;;
52354;SDS011;38286;51.156;17.038;2022-09-09T16:50:23;5.05;;;2.15;;
52354;SDS011;38286;51.156;17.038;2022-09-09T16:52:50;5.20;;;1.60;;
52354;SDS011;38286;51.156;17.038;2022-09-09T16:55:16;2.53;;;2.00;;
52354;SDS011;38286;51.156;17.038;2022-09-09T16:57:43;4.35;;;1.83;;
52354;SDS011;38286;51.156;17.038;2022-09-09T17:00:09;4.40;;;1.70;;
52354;SDS011;38286;51.156;17.038;2022-09-09T17:02:35;5.38;;;2.00;;